sensor_id;sensor_type;location;lat;lon;timestamp;P1;durP1;ratioP1;P2;durP2;ratioP2
32242;SDS011;18731;42.830;24.390;2024-03-02T00:02:05;23.35;;;9.10;;
32242;SDS011;18731;42.830;24.390;2024-03-02T00:04:31;26.38;;;9.68;;
32242;SDS011;18731;42.830;24.390;2024-03-02T00:06:57;25.67;;;8.27;;
32242;SDS011;18731;42.830;24.390;2024-03-02T00:09:23;29.30;;;9.73;;
32242;SDS011;18731;42.830;24.390;2024-03-02T00:11:48;18.55;;;8.77;;
32242;SDS011;18731;42.830;24.390;2024-03-02T00:14:14;29.95;;;9.35;;
32242;SDS011;18731;42.830;24.390;2024-03-02T00:16:40;25.23;;;9.85;;
32242;SDS011;18731;42.830;24.390;2024-03-02T00:19:06;20.58;;;8.98;;
32242;SDS011;18731;42.830;24.390;2024-03-02T00:21:34;34.78;;;9.57;;
32242;SDS011;18731;42.830;24.390;2024-03-02T00:23:59;24.55;;;9.27;;
32242;SDS011;18731;42.830;24.390;2024-03-02T00:26:28;25.40;;;8.43;;
32242;SDS011;18731;42.830;24.390;2024-03-02T00:28:55;22.42;;;8.50;;
32242;SDS011;18731;42.830;24.390;2024-03-02T00:31:22;27.67;;;9.55;;
32242;SDS011;18731;42.830;24.390;2024-03-02T00:33:48;22.92;;;9.13;;
32242;SDS011;18731;42.830;24.390;2024-03-02T00:36:14;21.52;;;8.98;;
32242;SDS011;18731;42.830;24.390;2024-03-02T00:38:46;23.90;;;9.10;;
32242;SDS011;18731;42.830;24.390;2024-03-02T00:41:17;25.55;;;10.27;;
32242;SDS011;18731;42.830;24.390;2024-03-02T00:43:48;21.48;;;10.35;;
32242;SDS011;18731;42.830;24.390;2024-03-02T00:46:26;24.45;;;10.70;;
32242;SDS011;18731;42.830;24.390;2024-03-02T00:48:56;23.45;;;9.52;;
32242;SDS011;18731;42.830;24.390;2024-03-02T00:51:23;23.85;;;9.40;;
32242;SDS011;18731;42.830;24.390;2024-03-02T00:53:51;24.33;;;10.85;;
32242;SDS011;18731;42.830;24.390;2024-03-02T00:56:20;24.92;;;9.55;;
32242;SDS011;18731;42.830;24.390;2024-03-02T00:58:46;24.67;;;10.18;;
32242;SDS011;18731;42.830;24.390;2024-03-02T01:01:12;21.08;;;9.60;;
32242;SDS011;18731;42.830;24.390;2024-03-02T01:03:37;22.88;;;10.40;;
32242;SDS011;18731;42.830;24.390;2024-03-02T01:06:03;25.83;;;10.30;;
32242;SDS011;18731;42.830;24.390;2024-03-02T01:08:29;23.08;;;11.15;;
32242;SDS011;18731;42.830;24.390;2024-03-02T01:10:55;21.23;;;10.07;;
32242;SDS011;18731;42.830;24.390;2024-03-02T01:13:23;19.70;;;11.30;;
32242;SDS011;18731;42.830;24.390;2024-03-02T01:15:49;23.55;;;10.93;;
32242;SDS011;18731;42.830;24.390;2024-03-02T01:18:15;25.27;;;10.60;;
32242;SDS011;18731;42.830;24.390;2024-03-02T01:20:41;26.42;;;11.38;;
32242;SDS011;18731;42.830;24.390;2024-03-02T01:23:06;32.38;;;11.55;;
32242;SDS011;18731;42.830;24.390;2024-03-02T01:25:32;24.95;;;10.05;;
32242;SDS011;18731;42.830;24.390;2024-03-02T01:27:57;18.30;;;9.95;;
32242;SDS011;18731;42.830;24.390;2024-03-02T01:30:23;23.85;;;10.50;;
32242;SDS011;18731;42.830;24.390;2024-03-02T01:32:48;20.85;;;10.30;;
32242;SDS011;18731;42.830;24.390;2024-03-02T01:35:14;24.08;;;9.90;;
32242;SDS011;18731;42.830;24.390;2024-03-02T01:37:42;21.77;;;10.00;;
32242;SDS011;18731;42.830;24.390;2024-03-02T01:40:08;24.58;;;12.30;;
32242;SDS011;18731;42.830;24.390;2024-03-02T01:42:37;41.88;;;18.48;;
32242;SDS011;18731;42.830;24.390;2024-03-02T01:45:04;46.97;;;22.77;;
32242;SDS011;18731;42.830;24.390;2024-03-02T01:47:33;43.05;;;22.15;;
32242;SDS011;18731;42.830;24.390;2024-03-02T01:49:59;46.33;;;21.30;;
32242;SDS011;18731;42.830;24.390;2024-03-02T01:52:25;42.55;;;22.33;;
32242;SDS011;18731;42.830;24.390;2024-03-02T01:54:52;45.35;;;22.27;;
32242;SDS011;18731;42.830;24.390;2024-03-02T01:57:18;51.85;;;23.52;;
32242;SDS011;18731;42.830;24.390;2024-03-02T01:59:44;54.78;;;26.02;;
32242;SDS011;18731;42.830;24.390;2024-03-02T02:02:12;65.68;;;29.38;;
32242;SDS011;18731;42.830;24.390;2024-03-02T02:04:39;63.08;;;29.13;;
32242;SDS011;18731;42.830;24.390;2024-03-02T02:07:04;61.85;;;30.67;;
32242;SDS011;18731;42.830;24.390;2024-03-02T02:09:31;60.42;;;29.55;;
32242;SDS011;18731;42.830;24.390;2024-03-02T02:11:57;68.22;;;31.52;;
32242;SDS011;18731;42.830;24.390;2024-03-02T02:14:23;65.13;;;30.98;;
32242;SDS011;18731;42.830;24.390;2024-03-02T02:16:48;60.92;;;30.45;;
32242;SDS011;18731;42.830;24.390;2024-03-02T02:19:14;67.15;;;30.38;;
32242;SDS011;18731;42.830;24.390;2024-03-02T02:21:42;65.57;;;33.55;;
32242;SDS011;18731;42.830;24.390;2024-03-02T02:24:08;70.88;;;33.40;;
32242;SDS011;18731;42.830;24.390;2024-03-02T02:26:34;72.85;;;33.50;;
32242;SDS011;18731;42.830;24.390;2024-03-02T02:29:00;63.67;;;30.58;;
32242;SDS011;18731;42.830;24.390;2024-03-02T02:31:25;63.78;;;31.48;;
32242;SDS011;18731;42.830;24.390;2024-03-02T02:33:51;68.25;;;31.95;;
32242;SDS011;18731;42.830;24.390;2024-03-02T02:36:16;72.53;;;32.00;;
32242;SDS011;18731;42.830;24.390;2024-03-02T02:38:44;71.40;;;32.97;;
32242;SDS011;18731;42.830;24.390;2024-03-02T02:41:12;74.68;;;33.28;;
32242;SDS011;18731;42.830;24.390;2024-03-02T02:43:38;72.47;;;33.25;;
32242;SDS011;18731;42.830;24.390;2024-03-02T02:46:05;79.70;;;30.55;;
32242;SDS011;18731;42.830;24.390;2024-03-02T02:48:30;104.95;;;35.15;;
32242;SDS011;18731;42.830;24.390;2024-03-02T02:50:55;86.50;;;34.03;;
32242;SDS011;18731;42.830;24.390;2024-03-02T02:53:21;158.27;;;34.15;;
32242;SDS011;18731;42.830;24.390;2024-03-02T02:55:47;132.05;;;35.38;;
32242;SDS011;18731;42.830;24.390;2024-03-02T02:58:12;188.95;;;32.88;;
32242;SDS011;18731;42.830;24.390;2024-03-02T03:00:38;177.32;;;32.03;;
32242;SDS011;18731;42.830;24.390;2024-03-02T03:03:05;88.95;;;33.25;;
32242;SDS011;18731;42.830;24.390;2024-03-02T03:05:30;114.57;;;32.90;;
32242;SDS011;18731;42.830;24.390;2024-03-02T03:07:56;172.80;;;35.50;;
32242;SDS011;18731;42.830;24.390;2024-03-02T03:10:22;210.57;;;36.33;;
32242;SDS011;18731;42.830;24.390;2024-03-02T03:12:48;199.93;;;32.33;;
32242;SDS011;18731;42.830;24.390;2024-03-02T03:15:14;191.18;;;32.22;;
32242;SDS011;18731;42.830;24.390;2024-03-02T03:17:41;148.05;;;37.80;;
32242;SDS011;18731;42.830;24.390;2024-03-02T03:20:07;113.93;;;31.92;;
32242;SDS011;18731;42.830;24.390;2024-03-02T03:22:36;117.32;;;31.02;;
32242;SDS011;18731;42.830;24.390;2024-03-02T03:25:02;97.78;;;29.70;;
32242;SDS011;18731;42.830;24.390;2024-03-02T03:27:28;63.85;;;27.65;;
32242;SDS011;18731;42.830;24.390;2024-03-02T03:29:54;66.55;;;29.52;;
32242;SDS011;18731;42.830;24.390;2024-03-02T03:32:20;87.60;;;31.10;;
32242;SDS011;18731;42.830;24.390;2024-03-02T03:34:45;117.60;;;32.50;;
32242;SDS011;18731;42.830;24.390;2024-03-02T03:37:13;79.18;;;30.08;;
32242;SDS011;18731;42.830;24.390;2024-03-02T03:39:38;76.32;;;31.20;;
32242;SDS011;18731;42.830;24.390;2024-03-02T03:42:04;77.25;;;29.25;;
32242;SDS011;18731;42.830;24.390;2024-03-02T03:44:29;72.57;;;27.95;;
32242;SDS011;18731;42.830;24.390;2024-03-02T03:46:55;65.47;;;29.70;;
32242;SDS011;18731;42.830;24.390;2024-03-02T03:49:21;70.60;;;29.83;;
32242;SDS011;18731;42.830;24.390;2024-03-02T03:51:46;61.65;;;27.75;;
32242;SDS011;18731;42.830;24.390;2024-03-02T03:54:11;59.15;;;26.38;;
32242;SDS011;18731;42.830;24.390;2024-03-02T03:56:37;66.38;;;28.35;;
32242;SDS011;18731;42.830;24.390;2024-03-02T03:59:03;58.25;;;26.13;;
32242;SDS011;18731;42.830;24.390;2024-03-02T04:01:29;65.45;;;27.55;;
32242;SDS011;18731;42.830;24.390;2024-03-02T04:03:56;70.72;;;29.45;;
32242;SDS011;18731;42.830;24.390;2024-03-02T04:06:22;67.55;;;29.05;;
32242;SDS011;18731;42.830;24.390;2024-03-02T04:08:48;59.40;;;27.20;;
32242;SDS011;18731;42.830;24.390;2024-03-02T04:11:13;65.97;;;27.10;;
32242;SDS011;18731;42.830;24.390;2024-03-02T04:13:39;59.08;;;27.30;;
32242;SDS011;18731;42.830;24.390;2024-03-02T04:16:04;67.05;;;26.90;;
32242;SDS011;18731;42.830;24.390;2024-03-02T04:18:30;63.72;;;27.30;;
32242;SDS011;18731;42.830;24.390;2024-03-02T04:20:57;55.30;;;25.35;;
32242;SDS011;18731;42.830;24.390;2024-03-02T04:23:24;61.53;;;25.27;;
32242;SDS011;18731;42.830;24.390;2024-03-02T04:25:52;59.53;;;26.23;;
32242;SDS011;18731;42.830;24.390;2024-03-02T04:28:18;51.80;;;23.60;;
32242;SDS011;18731;42.830;24.390;2024-03-02T04:30:43;50.13;;;23.52;;
32242;SDS011;18731;42.830;24.390;2024-03-02T04:33:09;54.78;;;24.50;;
32242;SDS011;18731;42.830;24.390;2024-03-02T04:35:38;59.42;;;25.38;;
32242;SDS011;18731;42.830;24.390;2024-03-02T04:38:03;56.30;;;25.60;;
32242;SDS011;18731;42.830;24.390;2024-03-02T04:40:29;57.85;;;25.23;;
32242;SDS011;18731;42.830;24.390;2024-03-02T04:42:54;55.92;;;24.38;;
32242;SDS011;18731;42.830;24.390;2024-03-02T04:45:20;62.30;;;26.38;;
32242;SDS011;18731;42.830;24.390;2024-03-02T04:47:45;59.60;;;25.38;;
32242;SDS011;18731;42.830;24.390;2024-03-02T04:50:11;57.58;;;25.67;;
32242;SDS011;18731;42.830;24.390;2024-03-02T04:52:36;51.60;;;24.33;;
32242;SDS011;18731;42.830;24.390;2024-03-02T04:55:02;52.92;;;23.88;;
32242;SDS011;18731;42.830;24.390;2024-03-02T04:57:43;59.45;;;24.48;;
32242;SDS011;18731;42.830;24.390;2024-03-02T05:00:09;55.15;;;24.33;;
32242;SDS011;18731;42.830;24.390;2024-03-02T05:02:35;56.42;;;25.10;;
32242;SDS011;18731;42.830;24.390;2024-03-02T05:05:01;53.67;;;23.85;;
32242;SDS011;18731;42.830;24.390;2024-03-02T05:07:27;55.10;;;24.52;;
32242;SDS011;18731;42.830;24.390;2024-03-02T05:09:53;55.25;;;25.25;;
32242;SDS011;18731;42.830;24.390;2024-03-02T05:12:18;54.75;;;24.95;;
32242;SDS011;18731;42.830;24.390;2024-03-02T05:14:56;50.22;;;23.23;;
32242;SDS011;18731;42.830;24.390;2024-03-02T05:17:21;46.67;;;21.45;;
32242;SDS011;18731;42.830;24.390;2024-03-02T05:19:47;49.60;;;23.92;;
32242;SDS011;18731;42.830;24.390;2024-03-02T05:22:13;52.03;;;23.75;;
32242;SDS011;18731;42.830;24.390;2024-03-02T05:24:38;53.65;;;24.45;;
32242;SDS011;18731;42.830;24.390;2024-03-02T05:27:04;55.97;;;26.58;;
32242;SDS011;18731;42.830;24.390;2024-03-02T05:29:31;55.70;;;26.50;;
32242;SDS011;18731;42.830;24.390;2024-03-02T05:31:56;67.25;;;28.67;;
32242;SDS011;18731;42.830;24.390;2024-03-02T05:34:22;60.92;;;27.50;;
32242;SDS011;18731;42.830;24.390;2024-03-02T05:36:47;53.78;;;24.70;;
32242;SDS011;18731;42.830;24.390;2024-03-02T05:39:13;57.03;;;25.63;;
32242;SDS011;18731;42.830;24.390;2024-03-02T05:41:39;50.80;;;24.52;;
32242;SDS011;18731;42.830;24.390;2024-03-02T05:44:04;56.20;;;24.08;;
32242;SDS011;18731;42.830;24.390;2024-03-02T05:46:30;50.85;;;22.65;;
32242;SDS011;18731;42.830;24.390;2024-03-02T05:48:55;42.55;;;21.58;;
32242;SDS011;18731;42.830;24.390;2024-03-02T05:51:21;46.38;;;22.23;;
32242;SDS011;18731;42.830;24.390;2024-03-02T05:53:46;45.30;;;21.65;;
32242;SDS011;18731;42.830;24.390;2024-03-02T05:56:13;49.30;;;23.35;;
32242;SDS011;18731;42.830;24.390;2024-03-02T05:58:38;48.22;;;22.77;;
32242;SDS011;18731;42.830;24.390;2024-03-02T06:01:26;48.60;;;23.48;;
32242;SDS011;18731;42.830;24.390;2024-03-02T06:03:56;46.53;;;22.33;;
32242;SDS011;18731;42.830;24.390;2024-03-02T06:06:23;48.00;;;23.52;;
32242;SDS011;18731;42.830;24.390;2024-03-02T06:08:50;47.03;;;23.00;;
32242;SDS011;18731;42.830;24.390;2024-03-02T06:11:16;48.58;;;22.00;;
32242;SDS011;18731;42.830;24.390;2024-03-02T06:13:41;49.67;;;23.35;;
32242;SDS011;18731;42.830;24.390;2024-03-02T06:16:07;47.85;;;23.55;;
32242;SDS011;18731;42.830;24.390;2024-03-02T06:18:33;46.50;;;22.88;;
32242;SDS011;18731;42.830;24.390;2024-03-02T06:20:59;52.35;;;23.42;;
32242;SDS011;18731;42.830;24.390;2024-03-02T06:23:26;43.75;;;22.92;;
32242;SDS011;18731;42.830;24.390;2024-03-02T06:25:52;45.03;;;23.70;;
32242;SDS011;18731;42.830;24.390;2024-03-02T06:28:18;42.13;;;20.83;;
32242;SDS011;18731;42.830;24.390;2024-03-02T06:30:43;39.65;;;20.35;;
32242;SDS011;18731;42.830;24.390;2024-03-02T06:33:10;47.80;;;22.02;;
32242;SDS011;18731;42.830;24.390;2024-03-02T06:35:35;39.75;;;20.40;;
32242;SDS011;18731;42.830;24.390;2024-03-02T06:38:01;37.85;;;20.02;;
32242;SDS011;18731;42.830;24.390;2024-03-02T06:40:27;38.75;;;19.67;;
32242;SDS011;18731;42.830;24.390;2024-03-02T06:42:52;33.53;;;19.35;;
32242;SDS011;18731;42.830;24.390;2024-03-02T06:45:18;38.45;;;21.08;;
32242;SDS011;18731;42.830;24.390;2024-03-02T06:47:44;40.40;;;21.05;;
32242;SDS011;18731;42.830;24.390;2024-03-02T06:50:09;35.60;;;19.52;;
32242;SDS011;18731;42.830;24.390;2024-03-02T06:52:35;35.75;;;18.50;;
32242;SDS011;18731;42.830;24.390;2024-03-02T06:55:01;35.25;;;18.38;;
32242;SDS011;18731;42.830;24.390;2024-03-02T06:57:27;38.20;;;20.02;;
32242;SDS011;18731;42.830;24.390;2024-03-02T06:59:53;43.47;;;22.40;;
32242;SDS011;18731;42.830;24.390;2024-03-02T07:02:22;42.67;;;21.95;;
32242;SDS011;18731;42.830;24.390;2024-03-02T07:04:48;47.53;;;24.15;;
32242;SDS011;18731;42.830;24.390;2024-03-02T07:07:13;45.80;;;23.38;;
32242;SDS011;18731;42.830;24.390;2024-03-02T07:09:39;42.88;;;22.60;;
32242;SDS011;18731;42.830;24.390;2024-03-02T07:12:05;43.80;;;22.30;;
32242;SDS011;18731;42.830;24.390;2024-03-02T07:14:30;44.53;;;22.85;;
32242;SDS011;18731;42.830;24.390;2024-03-02T07:17:14;39.35;;;21.25;;
32242;SDS011;18731;42.830;24.390;2024-03-02T07:19:40;43.47;;;21.58;;
32242;SDS011;18731;42.830;24.390;2024-03-02T07:22:06;42.35;;;21.08;;
32242;SDS011;18731;42.830;24.390;2024-03-02T07:24:32;38.03;;;19.17;;
32242;SDS011;18731;42.830;24.390;2024-03-02T07:26:58;36.70;;;18.70;;
32242;SDS011;18731;42.830;24.390;2024-03-02T07:29:23;36.17;;;18.63;;
32242;SDS011;18731;42.830;24.390;2024-03-02T07:31:49;36.85;;;20.05;;
32242;SDS011;18731;42.830;24.390;2024-03-02T07:34:14;38.58;;;18.48;;
32242;SDS011;18731;42.830;24.390;2024-03-02T07:36:40;36.63;;;19.10;;
32242;SDS011;18731;42.830;24.390;2024-03-02T07:39:06;33.13;;;17.17;;
32242;SDS011;18731;42.830;24.390;2024-03-02T07:41:32;35.63;;;18.02;;
32242;SDS011;18731;42.830;24.390;2024-03-02T07:43:58;32.60;;;18.23;;
32242;SDS011;18731;42.830;24.390;2024-03-02T07:46:23;35.97;;;18.67;;
32242;SDS011;18731;42.830;24.390;2024-03-02T07:48:49;32.45;;;17.77;;
32242;SDS011;18731;42.830;24.390;2024-03-02T07:51:16;29.17;;;17.17;;
32242;SDS011;18731;42.830;24.390;2024-03-02T07:53:42;30.83;;;17.80;;
32242;SDS011;18731;42.830;24.390;2024-03-02T07:56:07;33.38;;;18.02;;
32242;SDS011;18731;42.830;24.390;2024-03-02T07:58:33;30.52;;;17.95;;
32242;SDS011;18731;42.830;24.390;2024-03-02T08:01:00;31.30;;;17.63;;
32242;SDS011;18731;42.830;24.390;2024-03-02T08:03:26;30.48;;;16.90;;
32242;SDS011;18731;42.830;24.390;2024-03-02T08:05:52;31.23;;;17.27;;
32242;SDS011;18731;42.830;24.390;2024-03-02T08:08:17;29.50;;;17.40;;
32242;SDS011;18731;42.830;24.390;2024-03-02T08:10:43;29.98;;;16.67;;
32242;SDS011;18731;42.830;24.390;2024-03-02T08:13:09;28.00;;;16.35;;
32242;SDS011;18731;42.830;24.390;2024-03-02T08:15:34;28.48;;;16.23;;
32242;SDS011;18731;42.830;24.390;2024-03-02T08:18:00;32.25;;;17.67;;
32242;SDS011;18731;42.830;24.390;2024-03-02T08:20:25;26.35;;;15.43;;
32242;SDS011;18731;42.830;24.390;2024-03-02T08:22:51;28.52;;;15.27;;
32242;SDS011;18731;42.830;24.390;2024-03-02T08:25:20;27.63;;;15.98;;
32242;SDS011;18731;42.830;24.390;2024-03-02T08:27:45;28.33;;;15.90;;
32242;SDS011;18731;42.830;24.390;2024-03-02T08:30:11;25.52;;;15.25;;
32242;SDS011;18731;42.830;24.390;2024-03-02T08:32:37;27.50;;;15.57;;
32242;SDS011;18731;42.830;24.390;2024-03-02T08:35:03;27.50;;;15.40;;
32242;SDS011;18731;42.830;24.390;2024-03-02T08:37:29;25.63;;;15.65;;
32242;SDS011;18731;42.830;24.390;2024-03-02T08:39:55;24.85;;;15.02;;
32242;SDS011;18731;42.830;24.390;2024-03-02T08:42:20;25.48;;;16.35;;
32242;SDS011;18731;42.830;24.390;2024-03-02T08:44:46;27.38;;;15.40;;
32242;SDS011;18731;42.830;24.390;2024-03-02T08:47:12;29.80;;;15.75;;
32242;SDS011;18731;42.830;24.390;2024-03-02T08:49:38;25.52;;;15.27;;
32242;SDS011;18731;42.830;24.390;2024-03-02T08:52:04;29.15;;;19.60;;
32242;SDS011;18731;42.830;24.390;2024-03-02T08:54:29;26.42;;;17.33;;
32242;SDS011;18731;42.830;24.390;2024-03-02T08:56:55;23.58;;;14.45;;
32242;SDS011;18731;42.830;24.390;2024-03-02T08:59:20;27.55;;;15.27;;
32242;SDS011;18731;42.830;24.390;2024-03-02T09:01:46;25.38;;;15.00;;
32242;SDS011;18731;42.830;24.390;2024-03-02T09:04:11;27.80;;;16.98;;
32242;SDS011;18731;42.830;24.390;2024-03-02T09:06:37;25.55;;;16.02;;
32242;SDS011;18731;42.830;24.390;2024-03-02T09:09:03;25.27;;;14.32;;
32242;SDS011;18731;42.830;24.390;2024-03-02T09:11:29;22.88;;;14.02;;
32242;SDS011;18731;42.830;24.390;2024-03-02T09:13:55;18.98;;;11.77;;
32242;SDS011;18731;42.830;24.390;2024-03-02T09:16:21;19.17;;;11.27;;
32242;SDS011;18731;42.830;24.390;2024-03-02T09:18:47;17.55;;;10.93;;
32242;SDS011;18731;42.830;24.390;2024-03-02T09:21:12;22.15;;;13.13;;
32242;SDS011;18731;42.830;24.390;2024-03-02T09:23:38;21.90;;;12.43;;
32242;SDS011;18731;42.830;24.390;2024-03-02T09:26:05;17.02;;;10.55;;
32242;SDS011;18731;42.830;24.390;2024-03-02T09:28:31;15.88;;;10.30;;
32242;SDS011;18731;42.830;24.390;2024-03-02T09:30:56;17.58;;;9.75;;
32242;SDS011;18731;42.830;24.390;2024-03-02T09:33:22;17.23;;;10.25;;
32242;SDS011;18731;42.830;24.390;2024-03-02T09:35:47;15.98;;;10.52;;
32242;SDS011;18731;42.830;24.390;2024-03-02T09:38:13;19.92;;;11.25;;
32242;SDS011;18731;42.830;24.390;2024-03-02T09:40:40;16.92;;;10.35;;
32242;SDS011;18731;42.830;24.390;2024-03-02T09:43:07;19.35;;;10.75;;
32242;SDS011;18731;42.830;24.390;2024-03-02T09:45:32;22.42;;;12.27;;
32242;SDS011;18731;42.830;24.390;2024-03-02T09:47:58;22.30;;;12.35;;
32242;SDS011;18731;42.830;24.390;2024-03-02T09:50:25;20.30;;;11.25;;
32242;SDS011;18731;42.830;24.390;2024-03-02T09:52:50;19.52;;;10.80;;
32242;SDS011;18731;42.830;24.390;2024-03-02T09:55:17;15.00;;;9.85;;
32242;SDS011;18731;42.830;24.390;2024-03-02T09:57:45;18.23;;;10.23;;
32242;SDS011;18731;42.830;24.390;2024-03-02T10:00:11;17.90;;;9.63;;
32242;SDS011;18731;42.830;24.390;2024-03-02T10:02:40;17.92;;;9.75;;
32242;SDS011;18731;42.830;24.390;2024-03-02T10:05:07;13.40;;;7.57;;
32242;SDS011;18731;42.830;24.390;2024-03-02T10:07:37;12.52;;;7.55;;
32242;SDS011;18731;42.830;24.390;2024-03-02T10:10:12;11.90;;;6.20;;
32242;SDS011;18731;42.830;24.390;2024-03-02T10:12:40;8.73;;;4.20;;
32242;SDS011;18731;42.830;24.390;2024-03-02T10:15:05;13.43;;;5.82;;
32242;SDS011;18731;42.830;24.390;2024-03-02T10:17:32;9.23;;;4.07;;
32242;SDS011;18731;42.830;24.390;2024-03-02T10:19:58;11.05;;;3.95;;
32242;SDS011;18731;42.830;24.390;2024-03-02T10:22:23;7.63;;;4.22;;
32242;SDS011;18731;42.830;24.390;2024-03-02T10:24:49;9.30;;;3.35;;
32242;SDS011;18731;42.830;24.390;2024-03-02T10:27:16;9.73;;;3.00;;
32242;SDS011;18731;42.830;24.390;2024-03-02T10:29:42;19.60;;;7.32;;
32242;SDS011;18731;42.830;24.390;2024-03-02T10:32:11;8.98;;;3.83;;
32242;SDS011;18731;42.830;24.390;2024-03-02T10:34:37;17.02;;;6.25;;
32242;SDS011;18731;42.830;24.390;2024-03-02T10:37:05;16.50;;;6.43;;
32242;SDS011;18731;42.830;24.390;2024-03-02T10:39:31;9.38;;;5.55;;
32242;SDS011;18731;42.830;24.390;2024-03-02T10:41:57;7.50;;;4.95;;
32242;SDS011;18731;42.830;24.390;2024-03-02T10:44:23;8.70;;;5.85;;
32242;SDS011;18731;42.830;24.390;2024-03-02T10:46:51;7.18;;;5.28;;
32242;SDS011;18731;42.830;24.390;2024-03-02T10:49:19;8.90;;;5.82;;
32242;SDS011;18731;42.830;24.390;2024-03-02T10:51:47;11.88;;;6.25;;
32242;SDS011;18731;42.830;24.390;2024-03-02T10:54:13;16.10;;;6.28;;
32242;SDS011;18731;42.830;24.390;2024-03-02T10:56:39;10.75;;;6.68;;
32242;SDS011;18731;42.830;24.390;2024-03-02T10:59:27;8.60;;;5.82;;
32242;SDS011;18731;42.830;24.390;2024-03-02T11:01:58;10.20;;;6.20;;
32242;SDS011;18731;42.830;24.390;2024-03-02T11:04:26;11.65;;;6.85;;
32242;SDS011;18731;42.830;24.390;2024-03-02T11:06:54;11.27;;;6.18;;
32242;SDS011;18731;42.830;24.390;2024-03-02T11:09:25;10.32;;;6.55;;
32242;SDS011;18731;42.830;24.390;2024-03-02T11:14:43;10.18;;;6.68;;
32242;SDS011;18731;42.830;24.390;2024-03-02T11:17:09;9.40;;;6.25;;
32242;SDS011;18731;42.830;24.390;2024-03-02T11:19:36;10.55;;;6.10;;
32242;SDS011;18731;42.830;24.390;2024-03-02T11:22:03;9.13;;;5.68;;
32242;SDS011;18731;42.830;24.390;2024-03-02T11:24:30;10.27;;;5.60;;
32242;SDS011;18731;42.830;24.390;2024-03-02T11:27:00;10.73;;;5.63;;
32242;SDS011;18731;42.830;24.390;2024-03-02T11:29:47;9.85;;;5.80;;
32242;SDS011;18731;42.830;24.390;2024-03-02T11:32:17;7.45;;;5.53;;
32242;SDS011;18731;42.830;24.390;2024-03-02T11:34:46;7.55;;;4.78;;
32242;SDS011;18731;42.830;24.390;2024-03-02T11:37:14;10.88;;;5.65;;
32242;SDS011;18731;42.830;24.390;2024-03-02T11:39:42;7.55;;;5.15;;
32242;SDS011;18731;42.830;24.390;2024-03-02T11:42:09;7.93;;;5.63;;
32242;SDS011;18731;42.830;24.390;2024-03-02T11:44:36;7.60;;;5.55;;
32242;SDS011;18731;42.830;24.390;2024-03-02T11:47:06;8.88;;;5.70;;
32242;SDS011;18731;42.830;24.390;2024-03-02T11:52:13;7.47;;;5.38;;
32242;SDS011;18731;42.830;24.390;2024-03-02T11:54:41;9.30;;;5.97;;
32242;SDS011;18731;42.830;24.390;2024-03-02T11:57:20;8.35;;;5.90;;
32242;SDS011;18731;42.830;24.390;2024-03-02T11:59:50;7.65;;;5.50;;
32242;SDS011;18731;42.830;24.390;2024-03-02T12:02:16;5.90;;;4.53;;
32242;SDS011;18731;42.830;24.390;2024-03-02T12:04:46;8.57;;;5.13;;
32242;SDS011;18731;42.830;24.390;2024-03-02T12:07:22;8.02;;;5.07;;
32242;SDS011;18731;42.830;24.390;2024-03-02T12:09:49;7.30;;;4.70;;
32242;SDS011;18731;42.830;24.390;2024-03-02T12:12:24;7.97;;;5.05;;
32242;SDS011;18731;42.830;24.390;2024-03-02T12:14:50;9.32;;;5.70;;
32242;SDS011;18731;42.830;24.390;2024-03-02T12:17:17;11.35;;;5.97;;
32242;SDS011;18731;42.830;24.390;2024-03-02T12:19:43;7.35;;;5.13;;
32242;SDS011;18731;42.830;24.390;2024-03-02T12:22:11;11.85;;;5.45;;
32242;SDS011;18731;42.830;24.390;2024-03-02T12:24:36;6.43;;;4.35;;
32242;SDS011;18731;42.830;24.390;2024-03-02T12:27:02;6.57;;;4.45;;
32242;SDS011;18731;42.830;24.390;2024-03-02T12:29:29;6.50;;;4.85;;
32242;SDS011;18731;42.830;24.390;2024-03-02T12:31:55;7.72;;;4.50;;
32242;SDS011;18731;42.830;24.390;2024-03-02T12:34:21;9.30;;;4.95;;
32242;SDS011;18731;42.830;24.390;2024-03-02T12:36:47;5.78;;;4.43;;
32242;SDS011;18731;42.830;24.390;2024-03-02T12:39:15;7.28;;;4.65;;
32242;SDS011;18731;42.830;24.390;2024-03-02T12:41:41;6.32;;;4.80;;
32242;SDS011;18731;42.830;24.390;2024-03-02T12:44:07;6.70;;;4.65;;
32242;SDS011;18731;42.830;24.390;2024-03-02T12:46:33;6.70;;;4.40;;
32242;SDS011;18731;42.830;24.390;2024-03-02T12:49:10;7.00;;;4.88;;
32242;SDS011;18731;42.830;24.390;2024-03-02T12:51:38;9.13;;;4.68;;
32242;SDS011;18731;42.830;24.390;2024-03-02T12:54:08;6.68;;;4.63;;
32242;SDS011;18731;42.830;24.390;2024-03-02T12:56:37;6.15;;;4.57;;
32242;SDS011;18731;42.830;24.390;2024-03-02T12:59:03;6.65;;;4.22;;
32242;SDS011;18731;42.830;24.390;2024-03-02T13:01:30;7.50;;;4.22;;
32242;SDS011;18731;42.830;24.390;2024-03-02T13:03:57;6.85;;;4.38;;
32242;SDS011;18731;42.830;24.390;2024-03-02T13:06:23;5.72;;;4.30;;
32242;SDS011;18731;42.830;24.390;2024-03-02T13:08:52;6.03;;;4.40;;
32242;SDS011;18731;42.830;24.390;2024-03-02T13:11:17;5.53;;;4.22;;
32242;SDS011;18731;42.830;24.390;2024-03-02T13:13:44;6.70;;;4.05;;
32242;SDS011;18731;42.830;24.390;2024-03-02T13:16:10;6.45;;;4.20;;
32242;SDS011;18731;42.830;24.390;2024-03-02T13:18:37;5.50;;;4.28;;
32242;SDS011;18731;42.830;24.390;2024-03-02T13:21:06;9.38;;;5.70;;
32242;SDS011;18731;42.830;24.390;2024-03-02T13:23:33;14.23;;;7.80;;
32242;SDS011;18731;42.830;24.390;2024-03-02T13:25:58;11.90;;;6.30;;
32242;SDS011;18731;42.830;24.390;2024-03-02T13:28:24;7.15;;;5.50;;
32242;SDS011;18731;42.830;24.390;2024-03-02T13:30:50;12.18;;;7.38;;
32242;SDS011;18731;42.830;24.390;2024-03-02T13:33:16;9.85;;;5.18;;
32242;SDS011;18731;42.830;24.390;2024-03-02T13:35:47;8.80;;;6.05;;
32242;SDS011;18731;42.830;24.390;2024-03-02T13:38:16;7.72;;;4.68;;
32242;SDS011;18731;42.830;24.390;2024-03-02T13:40:43;5.57;;;4.18;;
32242;SDS011;18731;42.830;24.390;2024-03-02T13:43:08;6.15;;;4.40;;
32242;SDS011;18731;42.830;24.390;2024-03-02T13:45:34;8.10;;;4.97;;
32242;SDS011;18731;42.830;24.390;2024-03-02T13:48:00;7.22;;;4.85;;
32242;SDS011;18731;42.830;24.390;2024-03-02T13:50:27;5.65;;;3.92;;
32242;SDS011;18731;42.830;24.390;2024-03-02T13:52:54;7.45;;;4.20;;
32242;SDS011;18731;42.830;24.390;2024-03-02T13:55:20;6.68;;;3.70;;
32242;SDS011;18731;42.830;24.390;2024-03-02T13:57:46;4.95;;;3.55;;
32242;SDS011;18731;42.830;24.390;2024-03-02T14:00:12;6.25;;;3.70;;
32242;SDS011;18731;42.830;24.390;2024-03-02T14:02:39;5.05;;;3.90;;
32242;SDS011;18731;42.830;24.390;2024-03-02T14:05:05;7.10;;;3.97;;
32242;SDS011;18731;42.830;24.390;2024-03-02T14:07:30;5.72;;;4.15;;
32242;SDS011;18731;42.830;24.390;2024-03-02T14:09:56;5.30;;;3.60;;
32242;SDS011;18731;42.830;24.390;2024-03-02T14:12:23;6.18;;;3.78;;
32242;SDS011;18731;42.830;24.390;2024-03-02T14:14:48;4.53;;;3.78;;
32242;SDS011;18731;42.830;24.390;2024-03-02T14:17:16;6.35;;;3.97;;
32242;SDS011;18731;42.830;24.390;2024-03-02T14:19:41;6.55;;;3.75;;